Time;durP1;ratioP1;P1;durP2;ratioP2;P2;SDS_P1;SDS_P2;PMS_P1;PMS_P2;Temp;Humidity;BMP_temperature;BMP_pressure;BME280_temperature;BME280_humidity;BME280_pressure;Samples;Min_cycle;Max_cycle;Signal;HPM_P1;HPM_P2
2022/05/20 00:00:36;;;;;;;38.58;14.50;;;;;;;17.84;66.23;100414.47;10380588;28;20081;-64
2022/05/20 00:05:38;;;;;;;18.80;11.15;;;;;;;17.77;66.67;100429.19;10381605;28;20140;-64
2022/05/20 00:10:40;;;;;;;50.22;14.82;;;;;;;17.78;66.02;100413.19;10377222;28;20080;-65
2022/05/20 00:15:42;;;;;;;33.95;14.27;;;;;;;17.52;66.97;100427.69;10378484;28;20156;-65
2022/05/20 00:20:44;;;;;;;58.35;19.33;;;;;;;17.59;66.69;100425.38;10380246;28;20148;-66
2022/05/20 00:25:46;;;;;;;206.55;16.25;;;;;;;17.54;67.08;100401.09;10375496;28;20156;-66
2022/05/20 00:30:50;;;;;;;136.75;15.23;;;;;;;17.60;67.02;100430.56;10384510;28;20071;-66
2022/05/20 00:35:52;;;;;;;29.02;14.20;;;;;;;17.69;67.03;100416.56;10386977;28;20057;-66
2022/05/20 00:40:55;;;;;;;50.28;13.63;;;;;;;17.66;66.69;100400.09;10386714;28;20188;-65
2022/05/20 00:46:04;;;;;;;23.92;11.98;;;;;;;17.68;66.84;100445.78;10386939;28;20045;-66
2022/05/20 00:51:13;;;;;;;38.47;12.90;;;;;;;17.59;67.28;100467.69;10385141;28;20304;-65
2022/05/20 00:56:24;;;;;;;144.40;17.23;;;;;;;17.32;67.91;100412.56;10386236;28;21021;-65
2022/05/20 01:01:28;;;;;;;33.75;14.43;;;;;;;17.36;67.79;100403.44;10386203;28;20103;-65
2022/05/20 01:06:30;;;;;;;81.30;20.52;;;;;;;17.35;67.58;100390.31;10386680;28;20049;-65
2022/05/20 01:11:32;;;;;;;19.80;13.27;;;;;;;17.55;67.56;100386.91;10387963;28;20085;-66
2022/05/20 01:16:35;;;;;;;59.60;14.20;;;;;;;17.55;67.24;100393.03;10386328;28;20095;-65
2022/05/20 01:21:36;;;;;;;228.63;16.92;;;;;;;17.45;67.50;100386.81;10386513;28;20440;-66
2022/05/20 01:26:44;;;;;;;122.85;20.27;;;;;;;17.58;67.35;100395.44;10386454;28;20350;-66
2022/05/20 01:31:46;;;;;;;56.47;16.95;;;;;;;17.57;66.99;100404.34;10384438;28;20045;-65
2022/05/20 01:36:48;;;;;;;70.90;16.67;;;;;;;17.51;67.08;100396.06;10386237;28;20053;-65
2022/05/20 01:42:11;;;;;;;46.28;16.48;;;;;;;17.37;67.36;100394.53;10384747;28;20613;-65
2022/05/20 01:47:23;;;;;;;110.78;26.15;;;;;;;17.26;67.62;100402.44;10385190;28;20140;-65
2022/05/20 01:52:46;;;;;;;55.40;14.55;;;;;;;17.38;67.45;100401.50;10384682;28;20215;-67
2022/05/20 01:58:01;;;;;;;75.28;18.95;;;;;;;17.26;67.40;100407.72;10385061;28;20076;-66
2022/05/20 02:03:17;;;;;;;76.78;20.88;;;;;;;17.36;67.01;100392.88;10389204;28;20057;-65
2022/05/20 02:08:26;;;;;;;178.30;23.45;;;;;;;17.36;66.97;100387.59;10392545;28;20456;-65
2022/05/20 02:13:33;;;;;;;59.97;22.45;;;;;;;17.30;67.14;100401.22;10393798;28;20145;-65
2022/05/20 02:18:51;;;;;;;31.30;17.63;;;;;;;17.32;67.80;100401.97;10391942;28;20139;-65
2022/05/20 02:23:58;;;;;;;154.07;29.80;;;;;;;17.48;67.03;100386.59;10392523;28;20420;-65
2022/05/20 02:29:09;;;;;;;29.83;18.13;;;;;;;17.45;67.49;100431.78;10391088;28;20045;-65
2022/05/20 02:34:11;;;;;;;29.77;15.55;;;;;;;17.39;67.31;100503.66;10390604;28;20144;-65
2022/05/20 02:39:15;;;;;;;267.42;20.40;;;;;;;16.94;68.26;100369.81;10391490;28;20529;-65
2022/05/20 02:44:17;;;;;;;428.60;31.27;;;;;;;16.89;68.30;100366.69;10391377;28;20316;-65
2022/05/20 02:49:19;;;;;;;334.40;25.67;;;;;;;16.69;69.31;100376.16;10391262;28;20080;-65
2022/05/20 02:54:20;;;;;;;146.57;21.05;;;;;;;16.91;69.26;100399.97;10391207;28;20130;-65
2022/05/20 03:04:43;;;;;;;58.65;17.75;;;;;;;17.08;68.83;100372.19;10385891;28;20204;-66
2022/05/20 03:09:44;;;;;;;376.98;22.83;;;;;;;17.19;68.18;100369.53;10383067;28;20124;-65
2022/05/20 03:14:46;;;;;;;205.55;32.92;;;;;;;17.21;68.67;100388.75;10384641;28;20049;-65
2022/05/20 03:19:48;;;;;;;135.63;22.63;;;;;;;17.15;68.36;100370.75;10383024;28;20077;-65
2022/05/20 03:24:49;;;;;;;36.22;21.00;;;;;;;17.24;68.53;100403.56;10384641;28;20046;-65
2022/05/20 03:29:51;;;;;;;86.90;21.10;;;;;;;17.38;67.66;100403.31;10382329;28;20190;-65
2022/05/20 03:34:56;;;;;;;35.33;19.75;;;;;;;17.29;67.87;100404.84;10381568;28;20053;-65
2022/05/20 03:39:58;;;;;;;43.55;20.60;;;;;;;17.33;68.45;100500.63;10383911;28;20140;-66
2022/05/20 03:45:00;;;;;;;474.42;29.15;;;;;;;17.16;68.39;100388.28;10382841;28;20099;-66
2022/05/20 03:50:04;;;;;;;131.98;18.52;;;;;;;16.76;69.23;100339.56;10382533;28;20046;-65
2022/05/20 03:55:06;;;;;;;76.13;23.40;;;;;;;16.59;70.14;100374.38;10380950;28;20096;-65
2022/05/20 04:00:08;;;;;;;336.10;22.88;;;;;;;16.59;69.78;100342.69;10383782;28;20167;-65
2022/05/20 04:05:10;;;;;;;43.88;20.40;;;;;;;16.58;70.20;100336.56;10391474;28;20164;-65
2022/05/20 04:10:12;;;;;;;30.70;16.95;;;;;;;16.61;69.52;100322.28;10389750;28;20984;-65
2022/05/20 04:15:15;;;;;;;34.42;16.95;;;;;;;16.72;69.53;100336.31;10389731;28;20556;-66
2022/05/20 04:20:17;;;;;;;19.38;12.65;;;;;;;16.89;69.25;100343.78;10387631;28;20176;-65
2022/05/20 04:25:19;;;;;;;26.75;14.40;;;;;;;16.80;69.33;100351.56;10389630;28;20099;-65
2022/05/20 04:30:20;;;;;;;22.67;13.30;;;;;;;16.82;69.48;100376.91;10390140;28;20144;-65
2022/05/20 04:35:24;;;;;;;24.48;14.20;;;;;;;17.01;69.71;100381.59;10390228;28;20088;-65
2022/05/20 04:40:26;;;;;;;47.65;20.13;;;;;;;16.93;69.35;100376.06;10389895;28;20148;-65
2022/05/20 04:50:48;;;;;;;;;;;;;;;16.85;70.46;100371.38;10387878;28;20413;-66
2022/05/20 04:55:50;;;;;;;22.05;14.00;;;;;;;17.03;69.17;100374.38;10389508;28;19975;-65
2022/05/20 05:00:55;;;;;;;22.08;13.95;;;;;;;17.20;68.70;100376.50;10388361;28;20045;-65
2022/05/20 05:05:57;;;;;;;30.98;16.73;;;;;;;17.11;68.81;100371.13;10389284;28;20352;-65
2022/05/20 05:10:59;;;;;;;55.00;22.30;;;;;;;17.21;68.74;100357.03;10389945;28;20125;-65
2022/05/20 05:16:08;;;;;;;31.83;14.57;;;;;;;17.17;68.56;100338.91;10387798;28;20089;-65
2022/05/20 05:21:14;;;;;;;47.53;17.55;;;;;;;17.23;68.60;100302.25;10388749;28;20488;-65
2022/05/20 05:26:16;;;;;;;37.08;17.88;;;;;;;17.19;68.89;100282.31;10385429;28;20450;-65
2022/05/20 05:31:18;;;;;;;49.92;17.75;;;;;;;17.11;68.70;100299.75;10387491;28;20136;-65
2022/05/20 05:36:20;;;;;;;122.03;29.30;;;;;;;17.24;68.45;100351.50;10385998;28;20045;-66
2022/05/20 05:41:22;;;;;;;19.75;11.93;;;;;;;17.25;68.62;100331.19;10387526;28;20506;-65
2022/05/20 05:46:24;;;;;;;21.92;12.25;;;;;;;17.41;68.37;100326.38;10387792;28;20305;-65
2022/05/20 05:51:26;;;;;;;48.20;16.35;;;;;;;17.65;67.56;100332.28;10384675;28;20057;-66
2022/05/20 05:56:28;;;;;;;35.53;17.88;;;;;;;17.52;67.73;100336.94;10387169;28;20064;-65
2022/05/20 06:01:30;;;;;;;24.38;13.32;;;;;;;17.49;68.31;100343.28;10385677;28;20077;-65
2022/05/20 06:06:37;;;;;;;47.45;16.73;;;;;;;17.41;67.84;100339.59;10382301;28;20049;-65
2022/05/20 06:11:39;;;;;;;26.35;16.80;;;;;;;17.40;68.41;100338.78;10370573;28;20052;-67
2022/05/20 06:16:41;;;;;;;25.98;15.90;;;;;;;17.54;68.24;100319.97;10383682;28;20095;-67
2022/05/20 06:21:43;;;;;;;19.77;14.40;;;;;;;17.79;67.98;100319.59;10384036;28;20053;-66
2022/05/20 06:26:45;;;;;;;21.23;14.23;;;;;;;18.00;67.81;100318.75;10381434;28;20052;-67
2022/05/20 06:31:46;;;;;;;33.92;19.55;;;;;;;18.14;67.26;100329.03;10376773;28;20168;-66
2022/05/20 06:42:09;;;;;;;;;;;;;;;18.03;67.63;100323.81;10383712;28;20131;-67
2022/05/20 06:47:12;;;;;;;15.95;11.20;;;;;;;18.60;66.25;100316.22;10383007;28;19976;-65
2022/05/20 06:52:14;;;;;;;21.50;15.43;;;;;;;18.39;66.60;100310.97;10383213;28;20057;-67
2022/05/20 06:57:39;;;;;;;14.07;10.63;;;;;;;18.71;66.02;100316.09;10383233;28;20057;-65
2022/05/20 07:02:41;;;;;;;14.13;11.48;;;;;;;18.88;65.11;100311.97;10383151;28;20075;-65
2022/05/20 07:07:44;;;;;;;13.65;10.63;;;;;;;19.08;64.81;100308.44;10379795;28;20118;-65
2022/05/20 07:12:46;;;;;;;13.27;11.05;;;;;;;19.44;63.61;100311.28;10382653;28;20061;-67
2022/05/20 07:17:48;;;;;;;10.57;9.25;;;;;;;20.11;61.28;100302.47;10381909;28;20619;-67
2022/05/20 07:22:50;;;;;;;10.38;8.27;;;;;;;20.47;60.63;100295.50;10380612;28;20543;-65
2022/05/20 07:27:56;;;;;;;10.85;8.77;;;;;;;21.61;57.83;100283.34;10382664;28;20049;-67
2022/05/20 07:32:58;;;;;;;10.75;7.72;;;;;;;21.58;57.04;100273.84;10383383;28;20069;-67
2022/05/20 07:38:00;;;;;;;11.02;7.68;;;;;;;21.41;57.79;100284.50;10386283;28;20076;-65
2022/05/20 07:43:02;;;;;;;7.85;6.55;;;;;;;21.69;56.59;100278.09;10386518;28;20154;-65
2022/05/20 07:48:04;;;;;;;10.40;7.10;;;;;;;21.83;55.75;100278.38;10382560;28;20132;-67
2022/05/20 07:53:21;;;;;;;7.10;6.40;;;;;;;22.49;55.19;100278.66;10385750;28;20098;-67
2022/05/20 07:58:30;;;;;;;8.85;6.10;;;;;;;24.33;51.67;100276.41;10384527;28;20626;-67
2022/05/20 08:09:15;;;;;;;7.93;5.95;;;;;;;24.23;50.40;100244.56;10387081;28;20494;-69
2022/05/20 08:14:17;;;;;;;10.05;5.85;;;;;;;25.05;48.93;100224.47;10389046;28;20089;-69
2022/05/20 08:19:19;;;;;;;9.30;5.53;;;;;;;25.59;47.57;100209.19;10387255;28;20516;-69
2022/05/20 08:24:21;;;;;;;7.95;4.53;;;;;;;26.06;46.09;100217.78;10384577;28;20230;-70
2022/05/20 08:29:23;;;;;;;7.00;4.07;;;;;;;25.58;47.20;100226.25;10388394;28;20329;-68
2022/05/20 08:34:25;;;;;;;7.38;4.00;;;;;;;25.23;47.58;100214.31;10389318;28;20112;-68
2022/05/20 08:39:27;;;;;;;7.68;4.70;;;;;;;25.00;48.75;100210.78;10386899;28;20057;-67
2022/05/20 08:44:33;;;;;;;7.35;4.80;;;;;;;24.29;49.01;100206.44;10387259;28;20059;-67
2022/05/20 08:49:36;;;;;;;8.38;4.50;;;;;;;24.37;49.91;100194.88;10387874;28;20151;-67
2022/05/20 08:54:41;;;;;;;7.00;4.00;;;;;;;25.14;48.31;100177.91;10387727;28;20085;-68
2022/05/20 09:00:09;;;;;;;6.00;3.88;;;;;;;24.34;50.00;100173.84;10387369;28;20152;-68
2022/05/20 09:05:17;;;;;;;6.38;4.22;;;;;;;24.69;49.50;100175.19;10386970;28;20494;-68
2022/05/20 09:10:31;;;;;;;7.53;4.35;;;;;;;25.04;48.00;100159.41;10388062;28;20107;-68
2022/05/20 09:15:46;;;;;;;6.95;4.53;;;;;;;25.20;48.97;100155.78;10386923;28;20160;-68
2022/05/20 09:20:51;;;;;;;8.80;4.65;;;;;;;25.10;49.91;100149.84;10386145;28;20107;-69
2022/05/20 09:26:30;;;;;;;7.68;4.43;;;;;;;25.43;48.54;100143.19;10383074;28;20148;-69
2022/05/20 09:31:52;;;;;;;7.70;4.82;;;;;;;26.00;48.44;100130.06;10383483;28;20396;-69
2022/05/20 09:37:00;;;;;;;7.47;4.43;;;;;;;26.56;46.53;100112.44;10371773;28;20620;-69
2022/05/20 09:42:12;;;;;;;5.47;4.47;;;;;;;26.74;46.20;100101.25;10382886;28;20076;-68
2022/05/20 09:47:20;;;;;;;7.13;4.00;;;;;;;27.68;45.71;100087.38;10404886;28;20550;-68
2022/05/20 09:52:49;;;;;;;6.53;4.70;;;;;;;27.37;44.56;100077.88;10378342;28;20563;-68
2022/05/20 09:57:55;;;;;;;7.00;4.15;;;;;;;27.12;46.05;100071.25;10385056;28;20159;-68
2022/05/20 10:03:12;;;;;;;10.07;4.40;;;;;;;27.26;44.68;100064.97;10383619;28;20145;-67
2022/05/20 10:08:32;;;;;;;8.25;4.50;;;;;;;27.29;45.87;100053.84;10385893;28;20337;-67
2022/05/20 10:13:55;;;;;;;7.32;4.18;;;;;;;26.29;47.11;100048.75;10383854;28;20056;-67
2022/05/20 10:19:21;;;;;;;8.00;4.03;;;;;;;26.33;47.99;100048.19;10384925;28;20421;-67
2022/05/20 10:24:41;;;;;;;8.15;4.38;;;;;;;26.63;46.93;100033.66;10384962;28;20319;-68
2022/05/20 10:35:48;;;;;;;6.75;4.10;;;;;;;26.73;47.36;100009.19;10382979;28;20092;-66
2022/05/20 10:41:01;;;;;;;16.73;3.72;;;;;;;27.23;47.93;100000.94;10380652;28;20046;-67
2022/05/20 10:51:57;;;;;;;8.23;3.85;;;;;;;27.85;45.62;99979.34;10372854;28;20839;-67
2022/05/20 10:57:40;;;;;;;8.35;4.22;;;;;;;28.06;43.57;99962.25;10379783;28;20050;-67
2022/05/20 11:03:19;;;;;;;7.95;4.20;;;;;;;27.61;45.08;99950.28;10352349;28;20132;-67
2022/05/20 11:08:52;;;;;;;10.17;4.43;;;;;;;27.75;44.94;99918.97;10381251;28;20057;-68
2022/05/20 11:14:41;;;;;;;7.28;4.20;;;;;;;28.07;43.15;99912.81;10380952;28;20927;-69
2022/05/20 11:19:48;;;;;;;11.40;4.65;;;;;;;27.82;43.08;99917.94;10382586;28;20045;-68
2022/05/20 11:25:22;;;;;;;7.88;4.22;;;;;;;28.00;43.73;99914.66;10382988;28;20533;-68
2022/05/20 11:30:24;;;;;;;12.32;4.90;;;;;;;28.04;42.38;99913.22;10372632;28;20049;-68
2022/05/20 11:35:58;;;;;;;9.48;5.10;;;;;;;28.06;42.86;99903.09;10385064;28;20073;-68
2022/05/20 11:41:08;;;;;;;9.73;4.97;;;;;;;28.30;43.26;99899.03;10382727;28;20115;-69
2022/05/20 11:46:41;;;;;;;14.70;5.50;;;;;;;28.66;41.89;99891.34;10384086;28;20165;-69
2022/05/20 11:52:19;;;;;;;9.63;5.20;;;;;;;28.63;42.31;99894.44;10380770;28;20057;-69
2022/05/20 11:57:29;;;;;;;13.93;5.03;;;;;;;28.25;43.72;99883.47;10384132;28;20130;-67
2022/05/20 12:02:47;;;;;;;10.45;5.35;;;;;;;28.12;43.66;99892.34;10383433;28;20099;-69
2022/05/20 12:07:48;;;;;;;10.93;5.20;;;;;;;27.34;44.90;99914.41;10382744;28;20099;-69
2022/05/20 12:13:10;;;;;;;13.55;5.47;;;;;;;26.73;47.88;99901.06;10382619;28;20056;-68
2022/05/20 12:24:25;;;;;;;12.48;6.32;;;;;;;26.21;51.28;99745.91;10387686;28;20132;-68
2022/05/20 12:29:37;;;;;;;10.05;6.15;;;;;;;26.27;51.08;99723.69;10388015;28;20567;-67
2022/05/20 12:34:41;;;;;;;12.13;5.70;;;;;;;26.17;51.29;99697.25;10390035;28;20080;-67
2022/05/20 12:39:52;;;;;;;14.32;6.20;;;;;;;26.33;50.69;99710.31;10389614;28;20103;-67
2022/05/20 12:44:54;;;;;;;12.60;5.90;;;;;;;26.34;49.40;99756.75;10387696;28;20081;-67
2022/05/20 12:50:20;;;;;;;10.85;5.55;;;;;;;26.05;50.38;99805.19;10372021;28;20049;-67
2022/05/20 12:55:37;;;;;;;12.90;6.60;;;;;;;25.99;51.07;99833.59;10388487;28;20063;-67
2022/05/20 13:00:50;;;;;;;12.98;6.90;;;;;;;25.89;52.37;99833.06;10389702;28;20045;-67
2022/05/20 13:06:00;;;;;;;13.60;7.72;;;;;;;26.07;54.48;99827.25;10387496;28;20085;-68
2022/05/20 13:11:09;;;;;;;13.80;6.72;;;;;;;26.31;53.43;99832.19;10389607;28;20049;-68
2022/05/20 13:16:14;;;;;;;15.60;6.60;;;;;;;26.34;52.81;99829.97;10387406;28;20726;-69
2022/05/20 13:21:21;;;;;;;12.70;7.05;;;;;;;26.36;52.02;99776.16;10382265;28;20049;-69
2022/05/20 13:26:28;;;;;;;10.63;6.47;;;;;;;26.75;52.37;99760.28;10380340;28;20532;-68
2022/05/20 13:31:30;;;;;;;11.32;6.03;;;;;;;26.63;52.39;99735.03;10382130;28;20727;-68
2022/05/20 13:36:36;;;;;;;11.70;6.30;;;;;;;26.61;51.56;99759.41;10378187;28;20433;-68
2022/05/20 13:41:39;;;;;;;11.38;6.40;;;;;;;26.41;51.62;99758.44;10384073;28;20364;-69
2022/05/20 13:52:12;;;;;;;9.75;5.60;;;;;;;27.08;49.86;99734.38;10384468;28;20053;-68
2022/05/20 13:57:20;;;;;;;11.02;5.97;;;;;;;27.54;49.02;99734.53;10384822;28;20101;-69
2022/05/20 14:02:34;;;;;;;9.90;5.50;;;;;;;27.86;48.17;99717.59;10380732;28;20073;-69
2022/05/20 14:07:42;;;;;;;12.75;5.60;;;;;;;27.92;48.70;99705.19;10381603;28;20425;-68
2022/05/20 14:12:54;;;;;;;12.55;5.38;;;;;;;27.82;46.63;99669.84;10380219;28;20072;-70
2022/05/20 14:18:06;;;;;;;13.32;5.78;;;;;;;27.67;47.24;99659.28;10378277;28;20085;-68
2022/05/20 14:23:20;;;;;;;9.63;5.10;;;;;;;27.19;48.02;99637.19;10380807;28;20056;-68
2022/05/20 14:28:39;;;;;;;11.80;5.20;;;;;;;27.55;47.08;99634.06;10378128;28;20041;-69
2022/05/20 14:33:44;;;;;;;;;;;;;;;27.59;46.86;99639.84;10380750;28;20393;-67
2022/05/20 14:38:51;;;;;;;9.50;4.80;;;;;;;27.67;46.99;99642.34;10380754;28;20027;-69
2022/05/20 14:44:04;;;;;;;11.55;4.70;;;;;;;28.00;45.74;99622.47;10377550;28;20128;-69
2022/05/20 14:49:06;;;;;;;12.65;5.38;;;;;;;28.45;44.81;99627.91;10380844;28;20407;-68
2022/05/20 14:54:14;;;;;;;12.98;5.20;;;;;;;28.08;44.14;99629.47;10382901;28;20135;-68
2022/05/20 14:59:33;;;;;;;11.85;4.53;;;;;;;27.63;45.81;99608.88;10382718;28;20058;-69
2022/05/20 15:04:34;;;;;;;12.65;4.63;;;;;;;27.22;47.00;99599.16;10380335;28;20049;-69
2022/05/20 15:09:37;;;;;;;17.50;5.18;;;;;;;26.87;48.76;99592.31;10379071;28;20123;-69
2022/05/20 15:14:38;;;;;;;9.55;5.03;;;;;;;26.50;49.76;99564.16;10380599;28;20085;-69
2022/05/20 15:19:40;;;;;;;12.52;6.05;;;;;;;26.35;53.56;99559.97;10380700;28;20136;-68
2022/05/20 15:24:46;;;;;;;9.95;5.00;;;;;;;26.08;52.59;99499.28;10373773;28;20128;-69
2022/05/20 15:29:49;;;;;;;9.38;5.00;;;;;;;25.42;53.22;99482.03;10374574;28;20140;-69
2022/05/20 15:34:54;;;;;;;13.70;5.30;;;;;;;25.11;54.40;99522.56;10373074;28;20131;-68
2022/05/20 15:40:22;;;;;;;13.35;6.10;;;;;;;24.76;57.30;99535.03;10371324;28;20702;-69
2022/05/20 15:45:27;;;;;;;15.15;6.80;;;;;;;24.22;58.15;99536.50;10376183;28;20417;-69
2022/05/20 15:50:29;;;;;;;17.77;6.53;;;;;;;23.74;59.95;99643.88;10377585;28;20493;-69
2022/05/20 15:55:40;;;;;;;15.38;5.68;;;;;;;23.58;60.19;99655.56;10376963;28;20085;-70
2022/05/20 16:00:42;;;;;;;8.05;3.60;;;;;;;23.25;57.36;99566.94;10368740;28;20053;-70
2022/05/20 16:05:43;;;;;;;16.40;4.75;;;;;;;22.67;59.55;99578.25;10382685;28;20199;-70
2022/05/20 16:10:49;;;;;;;15.20;4.38;;;;;;;22.56;60.43;99583.97;10376942;28;20439;-70
2022/05/20 16:15:51;;;;;;;13.93;5.25;;;;;;;22.56;60.55;99594.63;10382911;28;20053;-70
2022/05/20 16:20:56;;;;;;;6.80;3.47;;;;;;;22.60;60.08;99584.44;10383070;28;20059;-70
2022/05/20 16:25:59;;;;;;;8.23;4.20;;;;;;;22.96;60.83;99576.72;10380425;28;20368;-70
2022/05/20 16:31:01;;;;;;;8.00;3.80;;;;;;;23.48;58.94;99574.94;10373036;28;20708;-70
2022/05/20 16:36:03;;;;;;;8.00;3.13;;;;;;;23.67;59.13;99573.56;10374046;28;20591;-70
2022/05/20 16:41:07;;;;;;;10.63;2.80;;;;;;;24.05;56.58;99543.88;10381700;28;20069;-68
2022/05/20 16:46:12;;;;;;;10.25;3.28;;;;;;;24.13;57.28;99527.75;10382828;28;20486;-68
2022/05/20 16:51:14;;;;;;;6.25;2.90;;;;;;;23.65;58.08;99559.56;10394840;28;20045;-70
2022/05/20 17:01:46;;;;;;;7.88;2.60;;;;;;;22.55;60.16;99565.50;10374896;28;20077;-70
2022/05/20 17:06:51;;;;;;;7.32;3.33;;;;;;;22.30;60.27;99554.16;10379985;28;20077;-70
2022/05/20 17:11:55;;;;;;;9.80;3.38;;;;;;;22.07;60.44;99561.25;10381429;28;20049;-70
2022/05/20 17:16:56;;;;;;;15.90;12.05;;;;;;;21.83;60.24;99595.94;10381977;28;20067;-69
2022/05/20 17:27:21;;;;;;;12.00;3.88;;;;;;;20.82;63.21;99679.78;10378498;28;20083;-70
2022/05/20 17:32:25;;;;;;;7.45;3.20;;;;;;;20.42;64.64;99711.47;10379758;28;20116;-68
2022/05/20 17:37:28;;;;;;;9.35;3.00;;;;;;;20.28;64.29;99696.97;10378727;28;20532;-69
2022/05/20 17:42:30;;;;;;;7.55;3.50;;;;;;;20.33;64.52;99698.31;10381017;28;20144;-68
2022/05/20 17:47:32;;;;;;;6.68;3.67;;;;;;;20.36;64.67;99720.06;10374520;28;20072;-68
2022/05/20 17:52:34;;;;;;;20.10;5.68;;;;;;;20.23;65.52;99722.34;10380066;28;20390;-69
2022/05/20 17:57:37;;;;;;;20.33;4.57;;;;;;;19.98;66.17;99709.91;10379400;28;20064;-69
2022/05/20 18:02:40;;;;;;;6.93;3.20;;;;;;;19.96;65.96;99717.19;10381844;28;20045;-69
2022/05/20 18:07:43;;;;;;;8.65;3.10;;;;;;;19.98;65.47;99707.25;10379274;28;20045;-69
2022/05/20 18:12:46;;;;;;;29.33;3.50;;;;;;;20.03;65.61;99718.25;10370241;28;20504;-70
2022/05/20 18:17:53;;;;;;;6.10;2.92;;;;;;;20.06;65.68;99739.16;10372774;28;20492;-69
2022/05/20 18:22:55;;;;;;;7.82;3.35;;;;;;;19.98;65.24;99774.47;10378340;28;20454;-68
2022/05/20 18:27:56;;;;;;;6.30;2.95;;;;;;;20.01;65.46;99752.91;10379341;28;20058;-68
2022/05/20 18:32:59;;;;;;;7.80;3.00;;;;;;;20.05;65.28;99761.41;10374254;28;20057;-69
2022/05/20 18:43:23;;;;;;;4.78;3.03;;;;;;;19.76;66.03;99785.53;10376170;28;20138;-68
2022/05/20 18:48:25;;;;;;;7.88;2.97;;;;;;;19.53;66.10;99805.56;10379693;28;20052;-69
2022/05/20 18:53:27;;;;;;;5.80;2.80;;;;;;;19.48;66.10;99821.91;10371274;28;20057;-69
2022/05/20 18:58:31;;;;;;;9.18;3.20;;;;;;;19.45;66.20;99829.34;10377884;28;20139;-69
2022/05/20 19:03:46;;;;;;;5.85;2.53;;;;;;;19.37;65.32;99838.06;10379814;28;20472;-69
2022/05/20 19:08:49;;;;;;;5.85;2.80;;;;;;;19.23;65.54;99841.22;10376182;28;20199;-69
2022/05/20 19:13:51;;;;;;;4.70;2.78;;;;;;;19.15;65.92;99858.84;10380041;28;20131;-69
2022/05/20 19:18:53;;;;;;;9.50;3.17;;;;;;;19.12;66.26;99875.88;10376620;28;20398;-69
2022/05/20 19:23:55;;;;;;;8.48;2.80;;;;;;;18.99;65.86;99891.25;10373396;28;20060;-69
2022/05/20 19:28:58;;;;;;;6.85;3.10;;;;;;;19.13;65.56;99924.44;10381411;28;20046;-69
2022/05/20 19:34:01;;;;;;;6.95;3.20;;;;;;;19.02;64.21;99938.72;10386922;28;20077;-69
2022/05/20 19:39:04;;;;;;;6.40;3.40;;;;;;;18.77;64.16;99970.28;10382158;28;20049;-69
2022/05/20 19:44:16;;;;;;;6.10;3.50;;;;;;;18.45;62.88;99991.78;10386518;28;20053;-69
2022/05/20 19:49:18;;;;;;;8.02;3.95;;;;;;;17.99;62.57;100012.75;10387826;28;20051;-69
2022/05/20 19:54:20;;;;;;;5.40;3.17;;;;;;;17.65;62.11;100017.53;10392381;28;20156;-69
2022/05/20 20:05:04;;;;;;;8.15;3.45;;;;;;;17.22;61.72;100038.88;10391897;28;20369;-69
2022/05/20 20:10:07;;;;;;;6.03;3.35;;;;;;;17.20;61.67;100048.75;10390298;28;20676;-63
2022/05/20 20:15:13;;;;;;;8.48;3.50;;;;;;;16.98;61.52;100054.19;10391118;28;20056;-63
2022/05/20 20:20:15;;;;;;;7.70;3.45;;;;;;;16.87;62.53;100049.78;10388500;28;20986;-65
2022/05/20 20:30:37;;;;;;;;;;;;;;;16.21;62.63;100058.81;10392313;28;20136;-65
2022/05/20 20:35:39;;;;;;;6.50;4.13;;;;;;;16.54;61.95;100070.25;10384891;28;21016;-64
2022/05/20 20:40:41;;;;;;;5.95;3.92;;;;;;;16.52;62.08;100066.91;10383636;28;20053;-64
2022/05/20 20:45:43;;;;;;;8.38;4.13;;;;;;;16.54;62.07;100080.81;10380230;28;20485;-64
2022/05/20 20:50:45;;;;;;;5.93;3.83;;;;;;;16.54;61.44;100097.50;10376398;28;20041;-65
2022/05/20 20:55:49;;;;;;;5.25;3.47;;;;;;;16.67;61.92;100111.34;10388491;28;20041;-65
2022/05/20 21:00:51;;;;;;;7.13;3.55;;;;;;;16.74;61.14;100123.09;10383998;28;20045;-64
2022/05/20 21:05:53;;;;;;;4.63;3.30;;;;;;;16.57;60.47;100120.19;10378374;28;20168;-65
2022/05/20 21:10:55;;;;;;;5.90;3.38;;;;;;;16.47;60.64;100133.25;10388206;28;20476;-63
2022/05/20 21:15:56;;;;;;;5.13;3.25;;;;;;;16.36;60.56;100127.16;10387755;28;20818;-62
2022/05/20 21:20:59;;;;;;;5.15;3.55;;;;;;;16.15;61.18;100138.47;10370911;28;20069;-64
2022/05/20 21:26:01;;;;;;;5.57;3.60;;;;;;;16.03;61.18;100160.53;10387620;28;20628;-63
2022/05/20 21:31:03;;;;;;;5.28;3.88;;;;;;;15.98;60.59;100167.97;10387626;28;20049;-63
2022/05/20 21:36:06;;;;;;;5.72;4.20;;;;;;;15.90;60.40;100177.44;10386518;28;20049;-63
2022/05/20 21:41:08;;;;;;;6.97;4.40;;;;;;;15.90;59.98;100188.81;10388514;28;20494;-63
2022/05/20 21:51:30;;;;;;;;;;;;;;;15.23;61.51;100208.06;10387129;28;20049;-63
2022/05/20 21:56:35;;;;;;;7.82;5.07;;;;;;;15.33;60.64;100215.16;10385457;28;20293;-63
2022/05/20 22:12:22;;;;;;;7.10;4.07;;;;;;;14.94;60.70;100272.59;10385793;28;20111;-63
2022/05/20 22:17:24;;;;;;;7.10;3.78;;;;;;;14.96;60.25;100283.84;10384957;28;20726;-63
2022/05/20 22:22:26;;;;;;;6.13;3.00;;;;;;;15.05;59.63;100288.44;10385138;28;20072;-63
2022/05/20 22:27:30;;;;;;;5.28;2.53;;;;;;;15.11;59.03;100296.75;10384977;28;20081;-63
2022/05/20 22:32:32;;;;;;;5.40;2.15;;;;;;;15.27;57.93;100289.41;10384137;28;20104;-63
2022/05/20 22:37:37;;;;;;;7.57;2.30;;;;;;;15.44;58.33;100293.44;10384944;28;20494;-63
2022/05/20 22:42:39;;;;;;;5.43;2.65;;;;;;;15.55;57.53;100309.31;10383965;28;20053;-63
2022/05/20 22:47:41;;;;;;;8.02;2.58;;;;;;;15.46;57.37;100320.53;10384354;28;20521;-63
2022/05/20 22:52:45;;;;;;;4.22;2.40;;;;;;;15.39;56.54;100328.03;10382781;28;20042;-63
2022/05/20 22:57:47;;;;;;;6.05;2.25;;;;;;;15.37;57.03;100334.38;10384639;28;20045;-63
2022/05/20 23:02:49;;;;;;;5.28;2.03;;;;;;;15.30;56.07;100327.88;10384420;28;20508;-63
2022/05/20 23:07:51;;;;;;;7.03;2.17;;;;;;;15.20;55.85;100330.34;10383553;28;20056;-63
2022/05/20 23:12:53;;;;;;;5.13;2.25;;;;;;;15.08;56.27;100346.19;10384357;28;20033;-63
2022/05/20 23:17:55;;;;;;;5.90;1.98;;;;;;;14.93;56.37;100329.69;10383115;28;20132;-63
2022/05/20 23:22:56;;;;;;;6.30;2.47;;;;;;;14.68;56.44;100318.34;10383919;28;20060;-63
2022/05/20 23:27:59;;;;;;;5.95;2.17;;;;;;;14.53;56.48;100313.22;10382923;28;20466;-63
2022/05/20 23:33:01;;;;;;;4.75;2.30;;;;;;;14.50;56.96;100309.97;10383485;28;20796;-63
2022/05/20 23:38:03;;;;;;;4.65;2.28;;;;;;;14.49;56.73;100309.13;10382690;28;20474;-63
2022/05/20 23:43:05;;;;;;;3.53;1.88;;;;;;;14.44;57.43;100311.22;10383855;28;20637;-63
2022/05/20 23:48:08;;;;;;;5.07;2.00;;;;;;;14.45;57.48;100310.25;10382823;28;20053;-63
2022/05/20 23:53:10;;;;;;;4.88;1.98;;;;;;;14.23;57.36;100304.78;10383579;28;20049;-64
2022/05/20 23:58:11;;;;;;;5.75;2.30;;;;;;;14.02;57.72;100308.91;10382010;28;20572;-63
